sensor_id;sensor_type;location;lat;lon;timestamp;temperature;humidity
73137;DHT22;67767;45.636;11.756;2023-02-19T00:01:38;10.30;85.50
73137;DHT22;67767;45.636;11.756;2023-02-19T00:04:15;10.30;85.40
73137;DHT22;67767;45.636;11.756;2023-02-19T00:06:42;10.30;85.50
73137;DHT22;67767;45.636;11.756;2023-02-19T00:09:10;10.40;85.40
73137;DHT22;67767;45.636;11.756;2023-02-19T00:11:36;10.30;85.30
73137;DHT22;67767;45.636;11.756;2023-02-19T00:14:03;10.40;85.00
73137;DHT22;67767;45.636;11.756;2023-02-19T00:16:32;10.30;85.20
73137;DHT22;67767;45.636;11.756;2023-02-19T00:19:00;10.30;85.60
73137;DHT22;67767;45.636;11.756;2023-02-19T00:21:26;10.10;86.20
73137;DHT22;67767;45.636;11.756;2023-02-19T00:23:55;10.10;86.10
73137;DHT22;67767;45.636;11.756;2023-02-19T00:26:21;10.20;85.90
73137;DHT22;67767;45.636;11.756;2023-02-19T00:28:47;10.20;85.70
73137;DHT22;67767;45.636;11.756;2023-02-19T00:31:19;10.10;85.90
73137;DHT22;67767;45.636;11.756;2023-02-19T00:33:46;10.10;86.00
73137;DHT22;67767;45.636;11.756;2023-02-19T00:36:12;10.10;86.00
73137;DHT22;67767;45.636;11.756;2023-02-19T00:38:39;10.10;86.20
73137;DHT22;67767;45.636;11.756;2023-02-19T00:41:06;10.20;85.90
73137;DHT22;67767;45.636;11.756;2023-02-19T00:43:51;10.20;85.90
73137;DHT22;67767;45.636;11.756;2023-02-19T00:46:19;10.00;86.40
73137;DHT22;67767;45.636;11.756;2023-02-19T00:48:45;10.00;86.80
73137;DHT22;67767;45.636;11.756;2023-02-19T00:51:11;9.90;87.50
73137;DHT22;67767;45.636;11.756;2023-02-19T00:53:37;9.70;87.70
73137;DHT22;67767;45.636;11.756;2023-02-19T00:56:03;9.80;87.60
73137;DHT22;67767;45.636;11.756;2023-02-19T00:58:29;9.90;87.70
73137;DHT22;67767;45.636;11.756;2023-02-19T01:00:55;9.90;87.50
73137;DHT22;67767;45.636;11.756;2023-02-19T01:03:21;9.80;87.90
73137;DHT22;67767;45.636;11.756;2023-02-19T01:05:50;9.90;88.20
73137;DHT22;67767;45.636;11.756;2023-02-19T01:08:16;9.80;87.90
73137;DHT22;67767;45.636;11.756;2023-02-19T01:10:42;9.80;87.90
73137;DHT22;67767;45.636;11.756;2023-02-19T01:13:08;9.70;88.20
73137;DHT22;67767;45.636;11.756;2023-02-19T01:15:34;9.80;88.10
73137;DHT22;67767;45.636;11.756;2023-02-19T01:18:00;9.80;88.00
73137;DHT22;67767;45.636;11.756;2023-02-19T01:20:26;9.90;88.00
73137;DHT22;67767;45.636;11.756;2023-02-19T01:22:52;9.90;87.80
73137;DHT22;67767;45.636;11.756;2023-02-19T01:25:18;9.90;87.80
73137;DHT22;67767;45.636;11.756;2023-02-19T01:27:43;9.90;88.00
73137;DHT22;67767;45.636;11.756;2023-02-19T01:30:09;9.90;87.90
73137;DHT22;67767;45.636;11.756;2023-02-19T01:32:35;9.90;87.80
73137;DHT22;67767;45.636;11.756;2023-02-19T01:35:01;10.00;87.70
73137;DHT22;67767;45.636;11.756;2023-02-19T01:37:26;9.90;87.60
73137;DHT22;67767;45.636;11.756;2023-02-19T01:39:52;9.90;87.70
73137;DHT22;67767;45.636;11.756;2023-02-19T01:42:18;9.90;87.70
73137;DHT22;67767;45.636;11.756;2023-02-19T01:47:13;9.90;87.50
73137;DHT22;67767;45.636;11.756;2023-02-19T01:49:43;9.90;87.70
73137;DHT22;67767;45.636;11.756;2023-02-19T01:52:17;9.80;87.80
73137;DHT22;67767;45.636;11.756;2023-02-19T01:54:46;9.90;87.80
73137;DHT22;67767;45.636;11.756;2023-02-19T01:57:18;9.80;87.70
73137;DHT22;67767;45.636;11.756;2023-02-19T01:59:47;9.70;87.80
73137;DHT22;67767;45.636;11.756;2023-02-19T02:02:15;9.80;88.10
73137;DHT22;67767;45.636;11.756;2023-02-19T02:04:40;9.70;88.00
73137;DHT22;67767;45.636;11.756;2023-02-19T02:07:06;9.70;88.00
73137;DHT22;67767;45.636;11.756;2023-02-19T02:09:52;9.60;88.30
73137;DHT22;67767;45.636;11.756;2023-02-19T02:12:36;9.60;88.40
73137;DHT22;67767;45.636;11.756;2023-02-19T02:15:02;9.60;88.40
73137;DHT22;67767;45.636;11.756;2023-02-19T02:17:40;9.70;88.60
73137;DHT22;67767;45.636;11.756;2023-02-19T02:20:32;9.70;88.50
73137;DHT22;67767;45.636;11.756;2023-02-19T02:26:08;9.60;88.50
73137;DHT22;67767;45.636;11.756;2023-02-19T02:31:38;9.60;88.90
73137;DHT22;67767;45.636;11.756;2023-02-19T02:34:15;9.60;89.10
73137;DHT22;67767;45.636;11.756;2023-02-19T02:36:45;9.60;88.70
73137;DHT22;67767;45.636;11.756;2023-02-19T02:39:16;9.60;88.80
73137;DHT22;67767;45.636;11.756;2023-02-19T02:41:43;9.70;88.50
73137;DHT22;67767;45.636;11.756;2023-02-19T02:44:10;9.60;88.50
73137;DHT22;67767;45.636;11.756;2023-02-19T02:46:39;9.70;88.60
73137;DHT22;67767;45.636;11.756;2023-02-19T02:49:16;9.70;88.30
73137;DHT22;67767;45.636;11.756;2023-02-19T02:51:46;9.70;88.40
73137;DHT22;67767;45.636;11.756;2023-02-19T02:54:28;9.70;88.30
73137;DHT22;67767;45.636;11.756;2023-02-19T02:57:16;9.70;88.20
73137;DHT22;67767;45.636;11.756;2023-02-19T02:59:43;9.70;88.40
73137;DHT22;67767;45.636;11.756;2023-02-19T03:02:23;9.60;88.60
73137;DHT22;67767;45.636;11.756;2023-02-19T03:05:09;9.70;88.40
73137;DHT22;67767;45.636;11.756;2023-02-19T03:08:03;9.70;88.20
73137;DHT22;67767;45.636;11.756;2023-02-19T03:10:40;9.70;88.40
73137;DHT22;67767;45.636;11.756;2023-02-19T03:13:10;9.70;88.60
73137;DHT22;67767;45.636;11.756;2023-02-19T03:16:05;9.70;88.50
73137;DHT22;67767;45.636;11.756;2023-02-19T03:18:53;9.80;88.20
73137;DHT22;67767;45.636;11.756;2023-02-19T03:21:41;9.80;88.20
73137;DHT22;67767;45.636;11.756;2023-02-19T03:24:10;9.80;88.30
73137;DHT22;67767;45.636;11.756;2023-02-19T03:26:57;9.70;88.40
73137;DHT22;67767;45.636;11.756;2023-02-19T03:29:25;9.80;88.50
73137;DHT22;67767;45.636;11.756;2023-02-19T03:32:02;9.80;88.40
73137;DHT22;67767;45.636;11.756;2023-02-19T03:34:35;9.70;88.40
73137;DHT22;67767;45.636;11.756;2023-02-19T03:37:26;9.70;88.30
73137;DHT22;67767;45.636;11.756;2023-02-19T03:39:53;9.70;88.70
73137;DHT22;67767;45.636;11.756;2023-02-19T03:42:34;9.70;89.20
73137;DHT22;67767;45.636;11.756;2023-02-19T03:45:13;9.70;88.90
73137;DHT22;67767;45.636;11.756;2023-02-19T03:50:53;9.80;88.60
73137;DHT22;67767;45.636;11.756;2023-02-19T03:56:14;9.60;89.10
73137;DHT22;67767;45.636;11.756;2023-02-19T03:58:50;9.50;89.20
73137;DHT22;67767;45.636;11.756;2023-02-19T04:01:31;9.50;89.40
73137;DHT22;67767;45.636;11.756;2023-02-19T04:06:45;9.50;89.30
73137;DHT22;67767;45.636;11.756;2023-02-19T04:09:13;9.50;89.40
73137;DHT22;67767;45.636;11.756;2023-02-19T04:11:40;9.50;89.50
73137;DHT22;67767;45.636;11.756;2023-02-19T04:14:22;9.40;89.40
73137;DHT22;67767;45.636;11.756;2023-02-19T04:16:57;9.20;90.50
73137;DHT22;67767;45.636;11.756;2023-02-19T04:19:25;9.30;90.50
73137;DHT22;67767;45.636;11.756;2023-02-19T04:21:53;9.30;90.50
73137;DHT22;67767;45.636;11.756;2023-02-19T04:24:27;9.20;90.40
73137;DHT22;67767;45.636;11.756;2023-02-19T04:26:54;9.30;90.70
73137;DHT22;67767;45.636;11.756;2023-02-19T04:29:20;9.50;90.20
73137;DHT22;67767;45.636;11.756;2023-02-19T04:31:46;9.60;89.70
73137;DHT22;67767;45.636;11.756;2023-02-19T04:34:12;9.50;89.50
73137;DHT22;67767;45.636;11.756;2023-02-19T04:36:37;9.40;89.70
73137;DHT22;67767;45.636;11.756;2023-02-19T04:39:03;9.50;89.90
73137;DHT22;67767;45.636;11.756;2023-02-19T04:41:29;9.50;89.70
73137;DHT22;67767;45.636;11.756;2023-02-19T04:43:54;9.40;90.20
73137;DHT22;67767;45.636;11.756;2023-02-19T04:46:20;9.40;90.10
73137;DHT22;67767;45.636;11.756;2023-02-19T04:48:46;9.50;90.10
73137;DHT22;67767;45.636;11.756;2023-02-19T04:51:12;9.50;90.00
73137;DHT22;67767;45.636;11.756;2023-02-19T04:53:37;9.60;89.60
73137;DHT22;67767;45.636;11.756;2023-02-19T04:56:09;9.60;89.40
73137;DHT22;67767;45.636;11.756;2023-02-19T04:58:35;9.50;89.50
73137;DHT22;67767;45.636;11.756;2023-02-19T05:01:01;9.30;90.00
73137;DHT22;67767;45.636;11.756;2023-02-19T05:03:27;9.50;90.00
73137;DHT22;67767;45.636;11.756;2023-02-19T05:05:53;9.50;89.90
73137;DHT22;67767;45.636;11.756;2023-02-19T05:08:19;9.60;89.70
73137;DHT22;67767;45.636;11.756;2023-02-19T05:10:44;9.60;89.20
73137;DHT22;67767;45.636;11.756;2023-02-19T05:13:10;9.40;90.00
73137;DHT22;67767;45.636;11.756;2023-02-19T05:15:36;9.50;90.20
73137;DHT22;67767;45.636;11.756;2023-02-19T05:18:02;9.60;89.70
73137;DHT22;67767;45.636;11.756;2023-02-19T05:20:27;9.50;90.10
73137;DHT22;67767;45.636;11.756;2023-02-19T05:22:54;9.40;90.10
73137;DHT22;67767;45.636;11.756;2023-02-19T05:25:20;9.60;89.90
73137;DHT22;67767;45.636;11.756;2023-02-19T05:27:46;9.60;89.60
73137;DHT22;67767;45.636;11.756;2023-02-19T05:30:12;9.60;89.70
73137;DHT22;67767;45.636;11.756;2023-02-19T05:32:37;9.60;89.80
73137;DHT22;67767;45.636;11.756;2023-02-19T05:35:03;9.70;89.50
73137;DHT22;67767;45.636;11.756;2023-02-19T05:37:29;9.70;89.20
73137;DHT22;67767;45.636;11.756;2023-02-19T05:39:55;9.70;88.90
73137;DHT22;67767;45.636;11.756;2023-02-19T05:42:20;9.70;89.30
73137;DHT22;67767;45.636;11.756;2023-02-19T05:44:46;9.70;88.90
73137;DHT22;67767;45.636;11.756;2023-02-19T05:47:11;9.80;88.90
73137;DHT22;67767;45.636;11.756;2023-02-19T05:49:37;9.60;89.40
73137;DHT22;67767;45.636;11.756;2023-02-19T05:52:03;9.60;89.70
73137;DHT22;67767;45.636;11.756;2023-02-19T05:54:29;9.70;89.60
73137;DHT22;67767;45.636;11.756;2023-02-19T05:56:55;9.60;89.50
73137;DHT22;67767;45.636;11.756;2023-02-19T05:59:23;9.70;89.40
73137;DHT22;67767;45.636;11.756;2023-02-19T06:01:50;9.60;89.30
73137;DHT22;67767;45.636;11.756;2023-02-19T06:04:17;9.60;89.40
73137;DHT22;67767;45.636;11.756;2023-02-19T06:06:44;9.60;89.20
73137;DHT22;67767;45.636;11.756;2023-02-19T06:09:11;9.50;89.80
73137;DHT22;67767;45.636;11.756;2023-02-19T06:11:37;9.40;90.10
73137;DHT22;67767;45.636;11.756;2023-02-19T06:14:04;9.50;90.20
73137;DHT22;67767;45.636;11.756;2023-02-19T06:16:30;9.60;90.10
73137;DHT22;67767;45.636;11.756;2023-02-19T06:18:57;9.70;89.60
73137;DHT22;67767;45.636;11.756;2023-02-19T06:21:23;9.70;89.30
73137;DHT22;67767;45.636;11.756;2023-02-19T06:23:49;9.70;89.10
73137;DHT22;67767;45.636;11.756;2023-02-19T06:26:17;9.70;89.20
73137;DHT22;67767;45.636;11.756;2023-02-19T06:28:44;9.80;89.00
73137;DHT22;67767;45.636;11.756;2023-02-19T06:31:10;9.70;88.60
73137;DHT22;67767;45.636;11.756;2023-02-19T06:33:36;9.70;88.80
73137;DHT22;67767;45.636;11.756;2023-02-19T06:36:10;9.70;88.80
73137;DHT22;67767;45.636;11.756;2023-02-19T06:38:36;9.60;88.90
73137;DHT22;67767;45.636;11.756;2023-02-19T06:41:03;9.50;89.70
73137;DHT22;67767;45.636;11.756;2023-02-19T06:43:30;9.60;89.60
73137;DHT22;67767;45.636;11.756;2023-02-19T06:46:00;9.70;89.80
73137;DHT22;67767;45.636;11.756;2023-02-19T06:48:28;9.70;89.70
73137;DHT22;67767;45.636;11.756;2023-02-19T06:50:54;9.70;89.10
73137;DHT22;67767;45.636;11.756;2023-02-19T06:53:20;9.80;89.20
73137;DHT22;67767;45.636;11.756;2023-02-19T06:56:04;9.70;88.90
73137;DHT22;67767;45.636;11.756;2023-02-19T06:58:31;9.70;89.20
73137;DHT22;67767;45.636;11.756;2023-02-19T07:00:56;9.70;89.00
73137;DHT22;67767;45.636;11.756;2023-02-19T07:03:22;9.70;88.70
73137;DHT22;67767;45.636;11.756;2023-02-19T07:05:48;9.70;88.90
73137;DHT22;67767;45.636;11.756;2023-02-19T07:08:14;9.70;89.10
73137;DHT22;67767;45.636;11.756;2023-02-19T07:10:43;9.60;89.00
73137;DHT22;67767;45.636;11.756;2023-02-19T07:13:09;9.70;89.50
73137;DHT22;67767;45.636;11.756;2023-02-19T07:15:34;9.70;89.20
73137;DHT22;67767;45.636;11.756;2023-02-19T07:18:02;9.80;88.90
73137;DHT22;67767;45.636;11.756;2023-02-19T07:20:29;9.80;88.70
73137;DHT22;67767;45.636;11.756;2023-02-19T07:22:56;9.70;89.10
73137;DHT22;67767;45.636;11.756;2023-02-19T07:25:21;9.70;89.60
73137;DHT22;67767;45.636;11.756;2023-02-19T07:27:47;9.70;89.50
73137;DHT22;67767;45.636;11.756;2023-02-19T07:30:13;9.70;89.40
73137;DHT22;67767;45.636;11.756;2023-02-19T07:32:41;9.80;88.80
73137;DHT22;67767;45.636;11.756;2023-02-19T07:35:09;9.70;89.40
73137;DHT22;67767;45.636;11.756;2023-02-19T07:37:35;9.70;89.20
73137;DHT22;67767;45.636;11.756;2023-02-19T07:40:01;9.70;88.90
73137;DHT22;67767;45.636;11.756;2023-02-19T07:42:27;9.60;89.90
73137;DHT22;67767;45.636;11.756;2023-02-19T07:44:52;9.70;89.90
73137;DHT22;67767;45.636;11.756;2023-02-19T07:47:18;9.60;90.10
73137;DHT22;67767;45.636;11.756;2023-02-19T07:49:44;9.60;89.90
73137;DHT22;67767;45.636;11.756;2023-02-19T07:52:09;9.70;90.20
73137;DHT22;67767;45.636;11.756;2023-02-19T07:54:35;9.70;89.60
73137;DHT22;67767;45.636;11.756;2023-02-19T07:57:01;9.70;89.70
73137;DHT22;67767;45.636;11.756;2023-02-19T07:59:26;9.70;89.90
73137;DHT22;67767;45.636;11.756;2023-02-19T08:01:52;9.80;89.80
73137;DHT22;67767;45.636;11.756;2023-02-19T08:04:36;9.80;89.20
73137;DHT22;67767;45.636;11.756;2023-02-19T08:07:02;9.90;89.50
73137;DHT22;67767;45.636;11.756;2023-02-19T08:09:30;9.90;89.50
73137;DHT22;67767;45.636;11.756;2023-02-19T08:11:55;9.90;89.10
73137;DHT22;67767;45.636;11.756;2023-02-19T08:14:40;10.00;89.20
73137;DHT22;67767;45.636;11.756;2023-02-19T08:17:05;10.00;89.20
73137;DHT22;67767;45.636;11.756;2023-02-19T08:19:31;10.00;89.00
73137;DHT22;67767;45.636;11.756;2023-02-19T08:21:57;10.00;89.00
73137;DHT22;67767;45.636;11.756;2023-02-19T08:24:22;10.00;89.00
73137;DHT22;67767;45.636;11.756;2023-02-19T08:26:48;10.00;88.80
73137;DHT22;67767;45.636;11.756;2023-02-19T08:29:14;10.20;88.60
73137;DHT22;67767;45.636;11.756;2023-02-19T08:31:39;10.10;88.60
73137;DHT22;67767;45.636;11.756;2023-02-19T08:34:05;10.20;88.70
73137;DHT22;67767;45.636;11.756;2023-02-19T08:36:31;10.20;88.40
73137;DHT22;67767;45.636;11.756;2023-02-19T08:38:57;10.20;88.50
73137;DHT22;67767;45.636;11.756;2023-02-19T08:41:22;10.10;88.50
73137;DHT22;67767;45.636;11.756;2023-02-19T08:43:48;10.10;88.50
73137;DHT22;67767;45.636;11.756;2023-02-19T08:46:14;10.20;88.60
73137;DHT22;67767;45.636;11.756;2023-02-19T08:48:39;10.20;88.40
73137;DHT22;67767;45.636;11.756;2023-02-19T08:51:07;10.20;88.60
73137;DHT22;67767;45.636;11.756;2023-02-19T08:53:35;10.10;88.60
73137;DHT22;67767;45.636;11.756;2023-02-19T08:56:09;10.20;88.60
73137;DHT22;67767;45.636;11.756;2023-02-19T08:58:35;10.20;88.40
73137;DHT22;67767;45.636;11.756;2023-02-19T09:01:02;10.20;88.40
73137;DHT22;67767;45.636;11.756;2023-02-19T09:03:28;10.20;88.50
73137;DHT22;67767;45.636;11.756;2023-02-19T09:05:54;10.30;88.60
73137;DHT22;67767;45.636;11.756;2023-02-19T09:08:19;10.20;88.50
73137;DHT22;67767;45.636;11.756;2023-02-19T09:10:49;10.10;88.40
73137;DHT22;67767;45.636;11.756;2023-02-19T09:13:21;10.20;88.70
73137;DHT22;67767;45.636;11.756;2023-02-19T09:15:46;10.20;88.60
73137;DHT22;67767;45.636;11.756;2023-02-19T09:18:12;10.40;88.10
73137;DHT22;67767;45.636;11.756;2023-02-19T09:20:37;10.30;88.40
73137;DHT22;67767;45.636;11.756;2023-02-19T09:23:03;10.40;88.40
73137;DHT22;67767;45.636;11.756;2023-02-19T09:25:29;10.40;88.20
73137;DHT22;67767;45.636;11.756;2023-02-19T09:27:55;10.50;88.10
73137;DHT22;67767;45.636;11.756;2023-02-19T09:30:21;10.50;88.10
73137;DHT22;67767;45.636;11.756;2023-02-19T09:32:47;10.50;88.30
73137;DHT22;67767;45.636;11.756;2023-02-19T09:35:12;10.60;88.10
73137;DHT22;67767;45.636;11.756;2023-02-19T09:37:38;10.60;88.10
73137;DHT22;67767;45.636;11.756;2023-02-19T09:40:04;10.60;88.00
73137;DHT22;67767;45.636;11.756;2023-02-19T09:42:31;10.60;87.80
73137;DHT22;67767;45.636;11.756;2023-02-19T09:44:58;10.60;87.90
73137;DHT22;67767;45.636;11.756;2023-02-19T09:47:30;10.60;88.10
73137;DHT22;67767;45.636;11.756;2023-02-19T09:50:04;10.60;87.80
73137;DHT22;67767;45.636;11.756;2023-02-19T09:52:37;10.80;87.80
73137;DHT22;67767;45.636;11.756;2023-02-19T09:55:34;10.80;87.50
73137;DHT22;67767;45.636;11.756;2023-02-19T09:58:23;10.80;87.50
73137;DHT22;67767;45.636;11.756;2023-02-19T10:00:53;10.80;87.50
73137;DHT22;67767;45.636;11.756;2023-02-19T10:03:26;10.80;87.50
73137;DHT22;67767;45.636;11.756;2023-02-19T10:06:04;10.70;87.40
73137;DHT22;67767;45.636;11.756;2023-02-19T10:08:32;10.70;87.50
73137;DHT22;67767;45.636;11.756;2023-02-19T10:11:00;10.80;87.60
73137;DHT22;67767;45.636;11.756;2023-02-19T10:15:59;11.00;87.30
73137;DHT22;67767;45.636;11.756;2023-02-19T10:18:28;10.80;87.30
73137;DHT22;67767;45.636;11.756;2023-02-19T10:20:56;11.00;87.10
73137;DHT22;67767;45.636;11.756;2023-02-19T10:23:23;10.90;87.40
73137;DHT22;67767;45.636;11.756;2023-02-19T10:25:56;11.20;87.30
73137;DHT22;67767;45.636;11.756;2023-02-19T10:28:27;11.10;86.70
73137;DHT22;67767;45.636;11.756;2023-02-19T10:30:56;11.10;86.90
73137;DHT22;67767;45.636;11.756;2023-02-19T10:33:22;11.10;86.70
73137;DHT22;67767;45.636;11.756;2023-02-19T10:38:34;11.20;86.80
73137;DHT22;67767;45.636;11.756;2023-02-19T10:41:07;11.30;86.70
73137;DHT22;67767;45.636;11.756;2023-02-19T10:43:39;11.30;86.40
73137;DHT22;67767;45.636;11.756;2023-02-19T10:46:27;11.30;86.40
73137;DHT22;67767;45.636;11.756;2023-02-19T10:48:54;11.40;86.70
73137;DHT22;67767;45.636;11.756;2023-02-19T10:51:30;11.40;86.10
73137;DHT22;67767;45.636;11.756;2023-02-19T10:54:32;11.50;86.00
73137;DHT22;67767;45.636;11.756;2023-02-19T10:57:15;11.50;86.00
73137;DHT22;67767;45.636;11.756;2023-02-19T11:00:01;11.50;85.90
73137;DHT22;67767;45.636;11.756;2023-02-19T11:02:29;11.60;85.50
73137;DHT22;67767;45.636;11.756;2023-02-19T11:07:48;11.70;85.40
73137;DHT22;67767;45.636;11.756;2023-02-19T11:10:26;11.60;85.40
73137;DHT22;67767;45.636;11.756;2023-02-19T11:12:55;11.70;85.30
73137;DHT22;67767;45.636;11.756;2023-02-19T11:15:33;11.90;85.00
73137;DHT22;67767;45.636;11.756;2023-02-19T11:23:36;11.80;85.10
73137;DHT22;67767;45.636;11.756;2023-02-19T11:26:05;11.90;84.80
73137;DHT22;67767;45.636;11.756;2023-02-19T11:28:36;12.00;84.60
73137;DHT22;67767;45.636;11.756;2023-02-19T11:34:22;12.00;84.50
73137;DHT22;67767;45.636;11.756;2023-02-19T11:39:32;12.10;84.20
73137;DHT22;67767;45.636;11.756;2023-02-19T11:42:38;12.00;84.10
73137;DHT22;67767;45.636;11.756;2023-02-19T11:47:48;12.00;84.30
73137;DHT22;67767;45.636;11.756;2023-02-19T11:50:28;11.90;84.10
73137;DHT22;67767;45.636;11.756;2023-02-19T11:58:38;12.00;84.40
73137;DHT22;67767;45.636;11.756;2023-02-19T12:01:34;12.00;84.20
73137;DHT22;67767;45.636;11.756;2023-02-19T12:09:33;12.20;83.70
73137;DHT22;67767;45.636;11.756;2023-02-19T12:12:19;12.10;83.40
73137;DHT22;67767;45.636;11.756;2023-02-19T12:23:41;12.20;83.50
73137;DHT22;67767;45.636;11.756;2023-02-19T12:26:19;12.20;83.50
73137;DHT22;67767;45.636;11.756;2023-02-19T12:29:00;12.30;83.50
73137;DHT22;67767;45.636;11.756;2023-02-19T12:31:53;12.30;83.50
73137;DHT22;67767;45.636;11.756;2023-02-19T12:46:02;12.50;82.60
73137;DHT22;67767;45.636;11.756;2023-02-19T12:54:01;12.60;82.30
73137;DHT22;67767;45.636;11.756;2023-02-19T12:59:23;12.60;82.00
73137;DHT22;67767;45.636;11.756;2023-02-19T13:02:14;12.60;82.10
73137;DHT22;67767;45.636;11.756;2023-02-19T13:07:16;12.60;82.30
73137;DHT22;67767;45.636;11.756;2023-02-19T13:09:58;12.70;82.10
73137;DHT22;67767;45.636;11.756;2023-02-19T13:17:40;12.80;80.50
73137;DHT22;67767;45.636;11.756;2023-02-19T13:23:11;12.70;80.30
73137;DHT22;67767;45.636;11.756;2023-02-19T13:26:05;12.70;80.50
73137;DHT22;67767;45.636;11.756;2023-02-19T13:34:18;12.90;80.30
73137;DHT22;67767;45.636;11.756;2023-02-19T13:36:45;12.90;80.20
73137;DHT22;67767;45.636;11.756;2023-02-19T13:39:14;12.90;80.10
73137;DHT22;67767;45.636;11.756;2023-02-19T13:41:47;13.00;80.20
73137;DHT22;67767;45.636;11.756;2023-02-19T13:44:23;12.80;79.80
73137;DHT22;67767;45.636;11.756;2023-02-19T13:46:50;12.80;79.90
73137;DHT22;67767;45.636;11.756;2023-02-19T13:51:50;13.00;79.80
73137;DHT22;67767;45.636;11.756;2023-02-19T13:54:34;13.10;79.70
73137;DHT22;67767;45.636;11.756;2023-02-19T13:59:55;13.10;79.40
73137;DHT22;67767;45.636;11.756;2023-02-19T14:02:33;13.10;79.50
73137;DHT22;67767;45.636;11.756;2023-02-19T14:05:08;13.20;79.30
73137;DHT22;67767;45.636;11.756;2023-02-19T14:07:47;13.30;78.80
73137;DHT22;67767;45.636;11.756;2023-02-19T14:12:59;13.30;78.90
73137;DHT22;67767;45.636;11.756;2023-02-19T14:15:42;13.10;78.70
73137;DHT22;67767;45.636;11.756;2023-02-19T14:18:41;13.10;78.90
73137;DHT22;67767;45.636;11.756;2023-02-19T14:21:25;13.10;79.10
73137;DHT22;67767;45.636;11.756;2023-02-19T14:23:55;13.10;79.00
73137;DHT22;67767;45.636;11.756;2023-02-19T14:26:25;13.00;79.20
73137;DHT22;67767;45.636;11.756;2023-02-19T14:28:52;13.10;78.90
73137;DHT22;67767;45.636;11.756;2023-02-19T14:31:32;13.10;79.00
73137;DHT22;67767;45.636;11.756;2023-02-19T14:34:00;13.10;79.00
73137;DHT22;67767;45.636;11.756;2023-02-19T14:41:51;13.40;78.60
73137;DHT22;67767;45.636;11.756;2023-02-19T14:44:24;13.40;78.60
73137;DHT22;67767;45.636;11.756;2023-02-19T14:46:55;13.40;78.60
73137;DHT22;67767;45.636;11.756;2023-02-19T14:49:35;13.40;78.60
73137;DHT22;67767;45.636;11.756;2023-02-19T14:52:05;13.10;79.00
73137;DHT22;67767;45.636;11.756;2023-02-19T14:57:09;13.00;79.40
73137;DHT22;67767;45.636;11.756;2023-02-19T14:59:36;13.00;79.30
73137;DHT22;67767;45.636;11.756;2023-02-19T15:02:13;13.00;79.40
73137;DHT22;67767;45.636;11.756;2023-02-19T15:04:40;13.00;79.30
73137;DHT22;67767;45.636;11.756;2023-02-19T15:07:08;13.10;79.20
73137;DHT22;67767;45.636;11.756;2023-02-19T15:09:38;13.00;79.30
73137;DHT22;67767;45.636;11.756;2023-02-19T15:12:06;13.10;79.30
73137;DHT22;67767;45.636;11.756;2023-02-19T15:14:32;13.00;79.20
73137;DHT22;67767;45.636;11.756;2023-02-19T15:17:04;12.90;79.30
73137;DHT22;67767;45.636;11.756;2023-02-19T15:19:33;13.00;79.40
73137;DHT22;67767;45.636;11.756;2023-02-19T15:22:00;12.90;79.30
73137;DHT22;67767;45.636;11.756;2023-02-19T15:24:27;12.90;79.50
73137;DHT22;67767;45.636;11.756;2023-02-19T15:26:54;12.90;79.30
73137;DHT22;67767;45.636;11.756;2023-02-19T15:29:22;12.90;79.70
73137;DHT22;67767;45.636;11.756;2023-02-19T15:31:54;12.90;79.60
73137;DHT22;67767;45.636;11.756;2023-02-19T15:36:49;12.80;80.00
73137;DHT22;67767;45.636;11.756;2023-02-19T15:39:23;12.70;81.40
73137;DHT22;67767;45.636;11.756;2023-02-19T15:41:55;12.80;80.20
73137;DHT22;67767;45.636;11.756;2023-02-19T15:44:29;12.70;80.30
73137;DHT22;67767;45.636;11.756;2023-02-19T15:46:56;12.60;81.40
73137;DHT22;67767;45.636;11.756;2023-02-19T15:49:30;12.70;80.40
73137;DHT22;67767;45.636;11.756;2023-02-19T15:52:05;12.60;81.80
73137;DHT22;67767;45.636;11.756;2023-02-19T15:54:54;12.50;81.70
73137;DHT22;67767;45.636;11.756;2023-02-19T15:57:26;12.50;82.00
73137;DHT22;67767;45.636;11.756;2023-02-19T16:00:19;12.40;82.10
73137;DHT22;67767;45.636;11.756;2023-02-19T16:02:46;12.50;81.90
73137;DHT22;67767;45.636;11.756;2023-02-19T16:05:23;12.40;82.00
73137;DHT22;67767;45.636;11.756;2023-02-19T16:08:18;12.40;82.00
73137;DHT22;67767;45.636;11.756;2023-02-19T16:10:53;12.40;82.20
73137;DHT22;67767;45.636;11.756;2023-02-19T16:13:23;12.40;82.10
73137;DHT22;67767;45.636;11.756;2023-02-19T16:15:57;12.40;82.20
73137;DHT22;67767;45.636;11.756;2023-02-19T16:18:23;12.40;82.00
73137;DHT22;67767;45.636;11.756;2023-02-19T16:20:49;12.50;82.30
73137;DHT22;67767;45.636;11.756;2023-02-19T16:23:17;12.20;82.50
73137;DHT22;67767;45.636;11.756;2023-02-19T16:25:45;12.20;82.60
73137;DHT22;67767;45.636;11.756;2023-02-19T16:28:20;12.20;82.50
73137;DHT22;67767;45.636;11.756;2023-02-19T16:31:00;12.30;82.60
73137;DHT22;67767;45.636;11.756;2023-02-19T16:35:56;12.10;82.70
73137;DHT22;67767;45.636;11.756;2023-02-19T16:38:22;12.10;82.70
73137;DHT22;67767;45.636;11.756;2023-02-19T16:43:29;12.10;82.70
73137;DHT22;67767;45.636;11.756;2023-02-19T16:45:56;12.00;82.70
73137;DHT22;67767;45.636;11.756;2023-02-19T16:48:22;12.20;82.80
73137;DHT22;67767;45.636;11.756;2023-02-19T16:50:49;12.10;83.00
73137;DHT22;67767;45.636;11.756;2023-02-19T16:53:22;12.10;82.90
73137;DHT22;67767;45.636;11.756;2023-02-19T16:55:53;12.10;82.80
73137;DHT22;67767;45.636;11.756;2023-02-19T16:58:19;12.00;83.00
73137;DHT22;67767;45.636;11.756;2023-02-19T17:00:46;12.00;83.10
73137;DHT22;67767;45.636;11.756;2023-02-19T17:03:18;12.00;83.10
73137;DHT22;67767;45.636;11.756;2023-02-19T17:05:44;12.00;83.00
73137;DHT22;67767;45.636;11.756;2023-02-19T17:08:38;12.00;83.00
73137;DHT22;67767;45.636;11.756;2023-02-19T17:11:08;12.10;83.00
73137;DHT22;67767;45.636;11.756;2023-02-19T17:13:34;12.00;83.10
73137;DHT22;67767;45.636;11.756;2023-02-19T17:16:00;12.00;83.30
73137;DHT22;67767;45.636;11.756;2023-02-19T17:18:26;11.90;83.40
73137;DHT22;67767;45.636;11.756;2023-02-19T17:21:04;11.90;83.30
73137;DHT22;67767;45.636;11.756;2023-02-19T17:23:34;11.80;83.60
73137;DHT22;67767;45.636;11.756;2023-02-19T17:26:00;11.70;83.60
73137;DHT22;67767;45.636;11.756;2023-02-19T17:28:25;11.70;83.60
73137;DHT22;67767;45.636;11.756;2023-02-19T17:30:51;11.60;83.80
73137;DHT22;67767;45.636;11.756;2023-02-19T17:33:17;11.60;84.10
73137;DHT22;67767;45.636;11.756;2023-02-19T17:35:43;11.50;84.00
73137;DHT22;67767;45.636;11.756;2023-02-19T17:38:13;11.50;84.00
73137;DHT22;67767;45.636;11.756;2023-02-19T17:40:39;11.40;84.10
73137;DHT22;67767;45.636;11.756;2023-02-19T17:43:06;11.10;84.40